sensor_id;sensor_type;location;lat;lon;timestamp;P1;durP1;ratioP1;P2;durP2;ratioP2
41837;SDS011;27511;52.042;5.178;2022-09-09T00:01:46;4.00;;;1.58;;
41837;SDS011;27511;52.042;5.178;2022-09-09T00:07:03;3.38;;;1.85;;
41837;SDS011;27511;52.042;5.178;2022-09-09T00:09:54;2.65;;;1.63;;
41837;SDS011;27511;52.042;5.178;2022-09-09T00:15:20;3.50;;;1.90;;
41837;SDS011;27511;52.042;5.178;2022-09-09T00:18:07;3.00;;;1.80;;
41837;SDS011;27511;52.042;5.178;2022-09-09T00:21:05;3.10;;;1.45;;
41837;SDS011;27511;52.042;5.178;2022-09-09T00:23:44;5.50;;;2.25;;
41837;SDS011;27511;52.042;5.178;2022-09-09T00:31:29;4.47;;;1.90;;
41837;SDS011;27511;52.042;5.178;2022-09-09T00:33:58;1.98;;;1.70;;
41837;SDS011;27511;52.042;5.178;2022-09-09T00:36:29;2.08;;;1.50;;
41837;SDS011;27511;52.042;5.178;2022-09-09T00:38:59;2.97;;;1.80;;
41837;SDS011;27511;52.042;5.178;2022-09-09T00:41:35;5.03;;;1.77;;
41837;SDS011;27511;52.042;5.178;2022-09-09T00:44:31;3.03;;;2.00;;
41837;SDS011;27511;52.042;5.178;2022-09-09T00:49:46;3.45;;;2.17;;
41837;SDS011;27511;52.042;5.178;2022-09-09T00:55:23;3.67;;;2.20;;
41837;SDS011;27511;52.042;5.178;2022-09-09T00:57:59;4.70;;;1.77;;
41837;SDS011;27511;52.042;5.178;2022-09-09T01:00:25;4.40;;;2.10;;
41837;SDS011;27511;52.042;5.178;2022-09-09T01:03:07;4.03;;;2.40;;
41837;SDS011;27511;52.042;5.178;2022-09-09T01:11:21;4.65;;;2.60;;
41837;SDS011;27511;52.042;5.178;2022-09-09T01:16:54;4.28;;;2.13;;
41837;SDS011;27511;52.042;5.178;2022-09-09T01:19:27;5.50;;;2.28;;
41837;SDS011;27511;52.042;5.178;2022-09-09T01:28:04;3.63;;;2.47;;
41837;SDS011;27511;52.042;5.178;2022-09-09T01:30:35;3.72;;;1.88;;
41837;SDS011;27511;52.042;5.178;2022-09-09T01:33:03;6.03;;;2.15;;
41837;SDS011;27511;52.042;5.178;2022-09-09T01:36:12;2.90;;;2.17;;
41837;SDS011;27511;52.042;5.178;2022-09-09T01:38:25;3.53;;;2.10;;
41837;SDS011;27511;52.042;5.178;2022-09-09T01:40:52;4.38;;;2.13;;
41837;SDS011;27511;52.042;5.178;2022-09-09T01:43:22;3.53;;;2.13;;
41837;SDS011;27511;52.042;5.178;2022-09-09T01:45:50;2.92;;;2.10;;
41837;SDS011;27511;52.042;5.178;2022-09-09T01:48:19;3.90;;;2.03;;
41837;SDS011;27511;52.042;5.178;2022-09-09T01:50:47;3.78;;;2.28;;
41837;SDS011;27511;52.042;5.178;2022-09-09T01:53:13;3.53;;;2.38;;
41837;SDS011;27511;52.042;5.178;2022-09-09T01:55:42;4.03;;;2.40;;
41837;SDS011;27511;52.042;5.178;2022-09-09T02:01:42;4.63;;;2.67;;
41837;SDS011;27511;52.042;5.178;2022-09-09T02:04:34;4.60;;;2.67;;
41837;SDS011;27511;52.042;5.178;2022-09-09T02:07:03;3.90;;;2.60;;
41837;SDS011;27511;52.042;5.178;2022-09-09T02:10:17;4.03;;;2.90;;
41837;SDS011;27511;52.042;5.178;2022-09-09T02:12:47;5.07;;;3.20;;
41837;SDS011;27511;52.042;5.178;2022-09-09T02:15:45;5.65;;;3.13;;
41837;SDS011;27511;52.042;5.178;2022-09-09T02:18:16;4.10;;;2.70;;
41837;SDS011;27511;52.042;5.178;2022-09-09T02:20:54;3.97;;;3.05;;
41837;SDS011;27511;52.042;5.178;2022-09-09T02:23:23;4.57;;;3.42;;
41837;SDS011;27511;52.042;5.178;2022-09-09T02:25:49;5.38;;;3.47;;
41837;SDS011;27511;52.042;5.178;2022-09-09T02:28:16;6.82;;;3.15;;
41837;SDS011;27511;52.042;5.178;2022-09-09T02:30:45;6.88;;;3.45;;
41837;SDS011;27511;52.042;5.178;2022-09-09T02:33:13;5.70;;;3.33;;
41837;SDS011;27511;52.042;5.178;2022-09-09T02:35:39;5.13;;;3.15;;
41837;SDS011;27511;52.042;5.178;2022-09-09T02:38:08;5.45;;;2.92;;
41837;SDS011;27511;52.042;5.178;2022-09-09T02:40:37;4.38;;;3.28;;
41837;SDS011;27511;52.042;5.178;2022-09-09T02:43:02;6.38;;;3.42;;
41837;SDS011;27511;52.042;5.178;2022-09-09T02:45:34;4.43;;;3.28;;
41837;SDS011;27511;52.042;5.178;2022-09-09T02:48:09;5.88;;;2.75;;
41837;SDS011;27511;52.042;5.178;2022-09-09T02:50:52;4.28;;;3.33;;
41837;SDS011;27511;52.042;5.178;2022-09-09T02:53:39;4.57;;;3.03;;
41837;SDS011;27511;52.042;5.178;2022-09-09T02:56:15;4.90;;;3.40;;
41837;SDS011;27511;52.042;5.178;2022-09-09T02:58:43;6.70;;;3.13;;
41837;SDS011;27511;52.042;5.178;2022-09-09T03:01:09;5.53;;;3.08;;
41837;SDS011;27511;52.042;5.178;2022-09-09T03:03:35;5.20;;;3.08;;
41837;SDS011;27511;52.042;5.178;2022-09-09T03:06:01;5.47;;;3.22;;
41837;SDS011;27511;52.042;5.178;2022-09-09T03:08:26;4.57;;;3.00;;
41837;SDS011;27511;52.042;5.178;2022-09-09T03:10:53;4.55;;;3.38;;
41837;SDS011;27511;52.042;5.178;2022-09-09T03:13:19;5.30;;;3.30;;
41837;SDS011;27511;52.042;5.178;2022-09-09T03:15:45;5.65;;;3.33;;
41837;SDS011;27511;52.042;5.178;2022-09-09T03:18:13;5.75;;;3.05;;
41837;SDS011;27511;52.042;5.178;2022-09-09T03:20:38;3.72;;;3.08;;
41837;SDS011;27511;52.042;5.178;2022-09-09T03:23:05;4.45;;;3.17;;
41837;SDS011;27511;52.042;5.178;2022-09-09T03:25:31;4.13;;;3.10;;
41837;SDS011;27511;52.042;5.178;2022-09-09T03:27:58;6.38;;;3.80;;
41837;SDS011;27511;52.042;5.178;2022-09-09T03:30:25;5.45;;;3.13;;
41837;SDS011;27511;52.042;5.178;2022-09-09T03:32:51;4.90;;;3.03;;
41837;SDS011;27511;52.042;5.178;2022-09-09T03:35:17;5.82;;;3.60;;
41837;SDS011;27511;52.042;5.178;2022-09-09T03:37:44;4.60;;;3.22;;
41837;SDS011;27511;52.042;5.178;2022-09-09T03:40:09;3.63;;;3.15;;
41837;SDS011;27511;52.042;5.178;2022-09-09T03:42:36;3.72;;;3.22;;
41837;SDS011;27511;52.042;5.178;2022-09-09T03:45:03;6.10;;;2.92;;
41837;SDS011;27511;52.042;5.178;2022-09-09T03:47:29;5.70;;;3.40;;
41837;SDS011;27511;52.042;5.178;2022-09-09T03:49:55;6.45;;;3.25;;
41837;SDS011;27511;52.042;5.178;2022-09-09T03:52:21;7.85;;;3.30;;
41837;SDS011;27511;52.042;5.178;2022-09-09T03:54:49;3.88;;;3.17;;
41837;SDS011;27511;52.042;5.178;2022-09-09T03:57:16;4.13;;;3.10;;
41837;SDS011;27511;52.042;5.178;2022-09-09T03:59:42;4.82;;;3.25;;
41837;SDS011;27511;52.042;5.178;2022-09-09T04:02:08;4.13;;;3.15;;
41837;SDS011;27511;52.042;5.178;2022-09-09T04:04:34;5.07;;;3.20;;
41837;SDS011;27511;52.042;5.178;2022-09-09T04:06:59;4.00;;;3.38;;
41837;SDS011;27511;52.042;5.178;2022-09-09T04:09:25;5.85;;;3.20;;
41837;SDS011;27511;52.042;5.178;2022-09-09T04:11:50;4.38;;;3.47;;
41837;SDS011;27511;52.042;5.178;2022-09-09T04:14:17;4.25;;;3.55;;
41837;SDS011;27511;52.042;5.178;2022-09-09T04:16:43;4.70;;;3.35;;
41837;SDS011;27511;52.042;5.178;2022-09-09T04:19:09;6.45;;;3.38;;
41837;SDS011;27511;52.042;5.178;2022-09-09T04:21:37;5.40;;;3.05;;
41837;SDS011;27511;52.042;5.178;2022-09-09T04:24:05;5.28;;;3.33;;
41837;SDS011;27511;52.042;5.178;2022-09-09T04:26:31;5.82;;;2.95;;
41837;SDS011;27511;52.042;5.178;2022-09-09T04:28:57;5.60;;;3.75;;
41837;SDS011;27511;52.042;5.178;2022-09-09T04:31:23;4.75;;;3.42;;
41837;SDS011;27511;52.042;5.178;2022-09-09T04:33:49;5.55;;;3.17;;
41837;SDS011;27511;52.042;5.178;2022-09-09T04:36:16;4.00;;;2.78;;
41837;SDS011;27511;52.042;5.178;2022-09-09T04:38:43;6.57;;;3.35;;
41837;SDS011;27511;52.042;5.178;2022-09-09T04:41:09;6.70;;;3.15;;
41837;SDS011;27511;52.042;5.178;2022-09-09T04:43:36;3.55;;;2.95;;
41837;SDS011;27511;52.042;5.178;2022-09-09T04:46:02;6.07;;;2.90;;
41837;SDS011;27511;52.042;5.178;2022-09-09T04:48:28;3.15;;;2.72;;
41837;SDS011;27511;52.042;5.178;2022-09-09T04:50:57;4.80;;;2.90;;
41837;SDS011;27511;52.042;5.178;2022-09-09T04:53:28;5.05;;;3.35;;
41837;SDS011;27511;52.042;5.178;2022-09-09T04:56:01;3.95;;;3.08;;
41837;SDS011;27511;52.042;5.178;2022-09-09T04:58:28;3.13;;;2.50;;
41837;SDS011;27511;52.042;5.178;2022-09-09T05:00:54;3.95;;;2.90;;
41837;SDS011;27511;52.042;5.178;2022-09-09T05:03:19;5.10;;;2.97;;
41837;SDS011;27511;52.042;5.178;2022-09-09T05:05:45;4.75;;;2.92;;
41837;SDS011;27511;52.042;5.178;2022-09-09T05:08:10;4.00;;;2.28;;
41837;SDS011;27511;52.042;5.178;2022-09-09T05:10:37;3.92;;;2.08;;
41837;SDS011;27511;52.042;5.178;2022-09-09T05:13:04;5.03;;;2.72;;
41837;SDS011;27511;52.042;5.178;2022-09-09T05:15:30;4.18;;;2.13;;
41837;SDS011;27511;52.042;5.178;2022-09-09T05:17:58;3.53;;;2.40;;
41837;SDS011;27511;52.042;5.178;2022-09-09T05:20:25;3.75;;;2.33;;
41837;SDS011;27511;52.042;5.178;2022-09-09T05:22:54;4.03;;;2.67;;
41837;SDS011;27511;52.042;5.178;2022-09-09T05:25:21;4.60;;;2.50;;
41837;SDS011;27511;52.042;5.178;2022-09-09T05:27:47;8.10;;;2.58;;
41837;SDS011;27511;52.042;5.178;2022-09-09T05:30:14;7.55;;;1.88;;
41837;SDS011;27511;52.042;5.178;2022-09-09T05:32:40;4.70;;;2.30;;
41837;SDS011;27511;52.042;5.178;2022-09-09T05:35:06;3.08;;;2.42;;
41837;SDS011;27511;52.042;5.178;2022-09-09T05:37:31;6.68;;;2.00;;
41837;SDS011;27511;52.042;5.178;2022-09-09T05:39:57;7.75;;;3.40;;
41837;SDS011;27511;52.042;5.178;2022-09-09T05:42:23;6.15;;;2.03;;
41837;SDS011;27511;52.042;5.178;2022-09-09T05:44:49;4.80;;;2.05;;
41837;SDS011;27511;52.042;5.178;2022-09-09T05:47:15;5.75;;;2.40;;
41837;SDS011;27511;52.042;5.178;2022-09-09T05:49:42;4.22;;;2.50;;
41837;SDS011;27511;52.042;5.178;2022-09-09T05:52:08;4.93;;;2.30;;
41837;SDS011;27511;52.042;5.178;2022-09-09T05:54:34;5.93;;;2.15;;
41837;SDS011;27511;52.042;5.178;2022-09-09T05:57:00;5.30;;;2.47;;
41837;SDS011;27511;52.042;5.178;2022-09-09T05:59:26;4.63;;;2.33;;
41837;SDS011;27511;52.042;5.178;2022-09-09T06:01:52;5.00;;;2.13;;
41837;SDS011;27511;52.042;5.178;2022-09-09T06:04:18;4.63;;;2.10;;
41837;SDS011;27511;52.042;5.178;2022-09-09T06:06:47;4.85;;;2.38;;
41837;SDS011;27511;52.042;5.178;2022-09-09T06:09:16;5.82;;;2.45;;
41837;SDS011;27511;52.042;5.178;2022-09-09T06:11:42;5.80;;;2.13;;
41837;SDS011;27511;52.042;5.178;2022-09-09T06:14:08;3.67;;;2.15;;
41837;SDS011;27511;52.042;5.178;2022-09-09T06:16:34;3.58;;;2.05;;
41837;SDS011;27511;52.042;5.178;2022-09-09T06:19:02;6.78;;;2.45;;
41837;SDS011;27511;52.042;5.178;2022-09-09T06:21:32;4.90;;;2.40;;
41837;SDS011;27511;52.042;5.178;2022-09-09T06:24:01;4.05;;;1.90;;
41837;SDS011;27511;52.042;5.178;2022-09-09T06:26:27;3.90;;;2.08;;
41837;SDS011;27511;52.042;5.178;2022-09-09T06:28:55;6.65;;;2.60;;
41837;SDS011;27511;52.042;5.178;2022-09-09T06:31:23;3.70;;;1.90;;
41837;SDS011;27511;52.042;5.178;2022-09-09T06:33:51;3.88;;;2.25;;
41837;SDS011;27511;52.042;5.178;2022-09-09T06:36:21;4.45;;;2.30;;
41837;SDS011;27511;52.042;5.178;2022-09-09T06:38:48;7.07;;;2.28;;
41837;SDS011;27511;52.042;5.178;2022-09-09T06:41:14;4.65;;;2.55;;
41837;SDS011;27511;52.042;5.178;2022-09-09T06:43:41;6.97;;;2.25;;
41837;SDS011;27511;52.042;5.178;2022-09-09T06:46:12;3.60;;;2.17;;
41837;SDS011;27511;52.042;5.178;2022-09-09T06:48:42;6.30;;;2.80;;
41837;SDS011;27511;52.042;5.178;2022-09-09T06:53:45;3.93;;;2.30;;
41837;SDS011;27511;52.042;5.178;2022-09-09T06:56:19;5.70;;;2.78;;
41837;SDS011;27511;52.042;5.178;2022-09-09T06:59:00;7.53;;;2.40;;
41837;SDS011;27511;52.042;5.178;2022-09-09T07:01:29;5.95;;;3.38;;
41837;SDS011;27511;52.042;5.178;2022-09-09T07:03:57;5.25;;;2.65;;
41837;SDS011;27511;52.042;5.178;2022-09-09T07:08:54;7.80;;;3.25;;
41837;SDS011;27511;52.042;5.178;2022-09-09T07:11:22;8.60;;;2.78;;
41837;SDS011;27511;52.042;5.178;2022-09-09T07:13:51;5.30;;;2.85;;
41837;SDS011;27511;52.042;5.178;2022-09-09T07:16:18;4.03;;;2.45;;
41837;SDS011;27511;52.042;5.178;2022-09-09T07:18:45;10.00;;;3.30;;
41837;SDS011;27511;52.042;5.178;2022-09-09T07:21:12;8.27;;;3.22;;
41837;SDS011;27511;52.042;5.178;2022-09-09T07:23:39;6.63;;;3.00;;
41837;SDS011;27511;52.042;5.178;2022-09-09T07:26:09;4.32;;;2.65;;
41837;SDS011;27511;52.042;5.178;2022-09-09T07:28:35;6.13;;;2.70;;
41837;SDS011;27511;52.042;5.178;2022-09-09T07:31:02;6.28;;;2.63;;
41837;SDS011;27511;52.042;5.178;2022-09-09T07:33:29;4.43;;;2.42;;
41837;SDS011;27511;52.042;5.178;2022-09-09T07:36:03;6.05;;;2.42;;
41837;SDS011;27511;52.042;5.178;2022-09-09T07:38:30;7.00;;;2.30;;
41837;SDS011;27511;52.042;5.178;2022-09-09T07:41:03;5.90;;;2.42;;
41837;SDS011;27511;52.042;5.178;2022-09-09T07:43:31;4.45;;;2.28;;
41837;SDS011;27511;52.042;5.178;2022-09-09T07:46:00;8.43;;;2.58;;
41837;SDS011;27511;52.042;5.178;2022-09-09T07:48:28;5.78;;;2.05;;
41837;SDS011;27511;52.042;5.178;2022-09-09T07:51:02;4.70;;;2.30;;
41837;SDS011;27511;52.042;5.178;2022-09-09T07:53:41;6.70;;;2.30;;
41837;SDS011;27511;52.042;5.178;2022-09-09T07:56:11;9.52;;;2.70;;
41837;SDS011;27511;52.042;5.178;2022-09-09T07:58:38;6.75;;;2.42;;
41837;SDS011;27511;52.042;5.178;2022-09-09T08:01:09;6.13;;;2.38;;
41837;SDS011;27511;52.042;5.178;2022-09-09T08:03:36;8.35;;;2.40;;
41837;SDS011;27511;52.042;5.178;2022-09-09T08:06:07;6.68;;;2.60;;
41837;SDS011;27511;52.042;5.178;2022-09-09T08:08:34;5.88;;;2.10;;
41837;SDS011;27511;52.042;5.178;2022-09-09T08:11:08;4.22;;;2.30;;
41837;SDS011;27511;52.042;5.178;2022-09-09T08:13:39;5.22;;;2.38;;
41837;SDS011;27511;52.042;5.178;2022-09-09T08:16:10;6.32;;;2.15;;
41837;SDS011;27511;52.042;5.178;2022-09-09T08:18:38;5.10;;;1.98;;
41837;SDS011;27511;52.042;5.178;2022-09-09T08:21:05;6.30;;;2.53;;
41837;SDS011;27511;52.042;5.178;2022-09-09T08:23:33;6.40;;;1.98;;
41837;SDS011;27511;52.042;5.178;2022-09-09T08:26:03;5.65;;;2.40;;
41837;SDS011;27511;52.042;5.178;2022-09-09T08:28:37;7.35;;;2.05;;
41837;SDS011;27511;52.042;5.178;2022-09-09T08:31:05;7.38;;;2.10;;
41837;SDS011;27511;52.042;5.178;2022-09-09T08:33:36;6.38;;;2.05;;
41837;SDS011;27511;52.042;5.178;2022-09-09T08:36:03;10.98;;;2.97;;
41837;SDS011;27511;52.042;5.178;2022-09-09T08:38:30;5.15;;;2.08;;
41837;SDS011;27511;52.042;5.178;2022-09-09T08:40:58;4.00;;;1.80;;
41837;SDS011;27511;52.042;5.178;2022-09-09T08:43:48;3.40;;;1.52;;
41837;SDS011;27511;52.042;5.178;2022-09-09T08:46:30;2.72;;;1.92;;
41837;SDS011;27511;52.042;5.178;2022-09-09T08:49:05;5.80;;;1.92;;
41837;SDS011;27511;52.042;5.178;2022-09-09T08:51:56;5.68;;;1.88;;
41837;SDS011;27511;52.042;5.178;2022-09-09T08:54:23;5.13;;;2.25;;
41837;SDS011;27511;52.042;5.178;2022-09-09T08:56:51;8.43;;;1.90;;
41837;SDS011;27511;52.042;5.178;2022-09-09T08:59:17;4.80;;;2.13;;
41837;SDS011;27511;52.042;5.178;2022-09-09T09:04:38;3.17;;;2.00;;
41837;SDS011;27511;52.042;5.178;2022-09-09T09:07:14;5.13;;;1.83;;
41837;SDS011;27511;52.042;5.178;2022-09-09T09:10:10;4.22;;;1.83;;
41837;SDS011;27511;52.042;5.178;2022-09-09T09:12:39;4.10;;;1.85;;
41837;SDS011;27511;52.042;5.178;2022-09-09T09:17:47;6.93;;;2.22;;
41837;SDS011;27511;52.042;5.178;2022-09-09T09:20:14;5.78;;;1.63;;
41837;SDS011;27511;52.042;5.178;2022-09-09T09:22:47;7.13;;;2.08;;
41837;SDS011;27511;52.042;5.178;2022-09-09T09:25:26;4.28;;;1.58;;
41837;SDS011;27511;52.042;5.178;2022-09-09T09:27:57;4.97;;;2.72;;
41837;SDS011;27511;52.042;5.178;2022-09-09T09:30:44;3.80;;;2.17;;
41837;SDS011;27511;52.042;5.178;2022-09-09T09:36:12;3.72;;;2.20;;
41837;SDS011;27511;52.042;5.178;2022-09-09T09:38:40;7.30;;;2.33;;
41837;SDS011;27511;52.042;5.178;2022-09-09T09:41:28;7.05;;;2.00;;
41837;SDS011;27511;52.042;5.178;2022-09-09T09:43:55;6.00;;;2.60;;
41837;SDS011;27511;52.042;5.178;2022-09-09T09:46:21;4.72;;;2.13;;
41837;SDS011;27511;52.042;5.178;2022-09-09T09:49:02;7.10;;;2.42;;
41837;SDS011;27511;52.042;5.178;2022-09-09T09:51:30;9.27;;;2.92;;
41837;SDS011;27511;52.042;5.178;2022-09-09T09:54:08;4.93;;;2.28;;
41837;SDS011;27511;52.042;5.178;2022-09-09T09:56:38;8.93;;;3.22;;
41837;SDS011;27511;52.042;5.178;2022-09-09T09:59:05;6.57;;;2.15;;
41837;SDS011;27511;52.042;5.178;2022-09-09T10:01:44;8.60;;;2.40;;
41837;SDS011;27511;52.042;5.178;2022-09-09T10:04:19;4.72;;;2.00;;
41837;SDS011;27511;52.042;5.178;2022-09-09T10:06:48;5.93;;;2.30;;
41837;SDS011;27511;52.042;5.178;2022-09-09T10:09:30;5.47;;;2.15;;
41837;SDS011;27511;52.042;5.178;2022-09-09T10:12:04;7.40;;;2.35;;
41837;SDS011;27511;52.042;5.178;2022-09-09T10:20:32;6.15;;;2.25;;
41837;SDS011;27511;52.042;5.178;2022-09-09T10:22:47;3.83;;;2.15;;
41837;SDS011;27511;52.042;5.178;2022-09-09T10:25:22;6.70;;;2.20;;
41837;SDS011;27511;52.042;5.178;2022-09-09T10:28:03;6.03;;;2.40;;
41837;SDS011;27511;52.042;5.178;2022-09-09T10:33:56;6.75;;;2.20;;
41837;SDS011;27511;52.042;5.178;2022-09-09T10:36:39;5.57;;;2.47;;
41837;SDS011;27511;52.042;5.178;2022-09-09T10:44:33;3.88;;;2.65;;
41837;SDS011;27511;52.042;5.178;2022-09-09T10:47:33;7.47;;;2.60;;
41837;SDS011;27511;52.042;5.178;2022-09-09T10:56:10;4.72;;;2.70;;
41837;SDS011;27511;52.042;5.178;2022-09-09T11:01:19;5.40;;;2.97;;
41837;SDS011;27511;52.042;5.178;2022-09-09T11:03:56;9.98;;;2.65;;
41837;SDS011;27511;52.042;5.178;2022-09-09T11:06:30;6.82;;;2.45;;
41837;SDS011;27511;52.042;5.178;2022-09-09T11:09:01;3.72;;;1.98;;
41837;SDS011;27511;52.042;5.178;2022-09-09T11:11:37;6.30;;;2.42;;
41837;SDS011;27511;52.042;5.178;2022-09-09T11:14:15;5.07;;;2.25;;
41837;SDS011;27511;52.042;5.178;2022-09-09T11:16:53;3.28;;;2.00;;
41837;SDS011;27511;52.042;5.178;2022-09-09T11:21:48;4.90;;;2.47;;
41837;SDS011;27511;52.042;5.178;2022-09-09T11:30:21;4.38;;;2.55;;
41837;SDS011;27511;52.042;5.178;2022-09-09T11:41:09;5.65;;;2.10;;
41837;SDS011;27511;52.042;5.178;2022-09-09T11:43:42;9.45;;;2.38;;
41837;SDS011;27511;52.042;5.178;2022-09-09T11:46:16;5.55;;;2.42;;
41837;SDS011;27511;52.042;5.178;2022-09-09T11:48:45;3.55;;;2.45;;
41837;SDS011;27511;52.042;5.178;2022-09-09T11:53:58;4.65;;;2.63;;
41837;SDS011;27511;52.042;5.178;2022-09-09T11:56:30;7.53;;;2.72;;
41837;SDS011;27511;52.042;5.178;2022-09-09T11:58:58;4.53;;;2.47;;
41837;SDS011;27511;52.042;5.178;2022-09-09T12:06:54;4.78;;;2.45;;
41837;SDS011;27511;52.042;5.178;2022-09-09T12:09:46;7.50;;;2.28;;
41837;SDS011;27511;52.042;5.178;2022-09-09T12:12:37;4.63;;;2.33;;
41837;SDS011;27511;52.042;5.178;2022-09-09T12:17:36;5.82;;;2.42;;
41837;SDS011;27511;52.042;5.178;2022-09-09T12:20:17;4.22;;;2.33;;
41837;SDS011;27511;52.042;5.178;2022-09-09T12:23:05;3.08;;;2.40;;
41837;SDS011;27511;52.042;5.178;2022-09-09T12:31:05;6.05;;;2.22;;
41837;SDS011;27511;52.042;5.178;2022-09-09T12:33:47;4.85;;;2.55;;
41837;SDS011;27511;52.042;5.178;2022-09-09T12:36:16;4.38;;;3.08;;
41837;SDS011;27511;52.042;5.178;2022-09-09T12:38:46;4.00;;;2.47;;
41837;SDS011;27511;52.042;5.178;2022-09-09T12:41:19;4.03;;;2.17;;
41837;SDS011;27511;52.042;5.178;2022-09-09T12:43:47;3.38;;;2.65;;
41837;SDS011;27511;52.042;5.178;2022-09-09T12:46:22;2.97;;;2.30;;
41837;SDS011;27511;52.042;5.178;2022-09-09T12:48:51;6.03;;;2.83;;
41837;SDS011;27511;52.042;5.178;2022-09-09T12:51:19;4.88;;;2.70;;
41837;SDS011;27511;52.042;5.178;2022-09-09T12:53:50;4.07;;;2.25;;
41837;SDS011;27511;52.042;5.178;2022-09-09T12:56:20;5.60;;;2.30;;
41837;SDS011;27511;52.042;5.178;2022-09-09T12:58:49;4.68;;;2.47;;
41837;SDS011;27511;52.042;5.178;2022-09-09T13:01:30;4.30;;;2.40;;
41837;SDS011;27511;52.042;5.178;2022-09-09T13:04:01;4.20;;;2.53;;
41837;SDS011;27511;52.042;5.178;2022-09-09T13:06:30;2.50;;;2.00;;
41837;SDS011;27511;52.042;5.178;2022-09-09T13:08:58;2.97;;;2.38;;
41837;SDS011;27511;52.042;5.178;2022-09-09T13:11:35;4.55;;;2.05;;
41837;SDS011;27511;52.042;5.178;2022-09-09T13:14:04;5.25;;;2.38;;
41837;SDS011;27511;52.042;5.178;2022-09-09T13:16:34;4.80;;;2.65;;
41837;SDS011;27511;52.042;5.178;2022-09-09T13:19:02;4.40;;;2.40;;
41837;SDS011;27511;52.042;5.178;2022-09-09T13:21:37;4.10;;;2.95;;
41837;SDS011;27511;52.042;5.178;2022-09-09T13:26:58;4.85;;;2.70;;
41837;SDS011;27511;52.042;5.178;2022-09-09T13:29:28;3.55;;;2.55;;
41837;SDS011;27511;52.042;5.178;2022-09-09T13:32:05;8.15;;;2.80;;
41837;SDS011;27511;52.042;5.178;2022-09-09T13:34:49;4.75;;;2.72;;
41837;SDS011;27511;52.042;5.178;2022-09-09T13:37:33;6.85;;;3.42;;
41837;SDS011;27511;52.042;5.178;2022-09-09T13:40:01;6.30;;;3.25;;
41837;SDS011;27511;52.042;5.178;2022-09-09T13:42:31;4.25;;;2.60;;
41837;SDS011;27511;52.042;5.178;2022-09-09T13:45:00;3.97;;;2.67;;
41837;SDS011;27511;52.042;5.178;2022-09-09T13:47:30;4.60;;;3.15;;
41837;SDS011;27511;52.042;5.178;2022-09-09T13:50:09;8.33;;;3.13;;
41837;SDS011;27511;52.042;5.178;2022-09-09T13:52:54;6.18;;;2.78;;
41837;SDS011;27511;52.042;5.178;2022-09-09T13:55:23;3.90;;;2.55;;
41837;SDS011;27511;52.042;5.178;2022-09-09T13:58:00;5.82;;;3.13;;
41837;SDS011;27511;52.042;5.178;2022-09-09T14:00:31;4.75;;;2.88;;
41837;SDS011;27511;52.042;5.178;2022-09-09T14:02:58;6.20;;;2.83;;
41837;SDS011;27511;52.042;5.178;2022-09-09T14:05:26;5.68;;;3.08;;
41837;SDS011;27511;52.042;5.178;2022-09-09T14:07:52;5.63;;;3.20;;
41837;SDS011;27511;52.042;5.178;2022-09-09T14:10:18;4.78;;;3.05;;
41837;SDS011;27511;52.042;5.178;2022-09-09T14:12:44;5.07;;;3.00;;
41837;SDS011;27511;52.042;5.178;2022-09-09T14:15:11;7.00;;;3.35;;
41837;SDS011;27511;52.042;5.178;2022-09-09T14:17:37;8.82;;;3.40;;
41837;SDS011;27511;52.042;5.178;2022-09-09T14:20:04;7.45;;;3.72;;
41837;SDS011;27511;52.042;5.178;2022-09-09T14:22:33;7.15;;;3.75;;
41837;SDS011;27511;52.042;5.178;2022-09-09T14:24:58;5.40;;;3.10;;
41837;SDS011;27511;52.042;5.178;2022-09-09T14:27:24;5.30;;;3.60;;
41837;SDS011;27511;52.042;5.178;2022-09-09T14:29:51;7.00;;;3.63;;
41837;SDS011;27511;52.042;5.178;2022-09-09T14:32:17;7.75;;;3.80;;
41837;SDS011;27511;52.042;5.178;2022-09-09T14:34:43;6.55;;;4.22;;
41837;SDS011;27511;52.042;5.178;2022-09-09T14:37:09;8.55;;;4.40;;
41837;SDS011;27511;52.042;5.178;2022-09-09T14:39:34;9.15;;;4.68;;
41837;SDS011;27511;52.042;5.178;2022-09-09T14:42:00;5.70;;;4.28;;
41837;SDS011;27511;52.042;5.178;2022-09-09T14:44:28;3.78;;;3.00;;
41837;SDS011;27511;52.042;5.178;2022-09-09T14:46:54;3.08;;;2.67;;
41837;SDS011;27511;52.042;5.178;2022-09-09T14:49:19;3.75;;;2.50;;
41837;SDS011;27511;52.042;5.178;2022-09-09T14:51:45;3.40;;;1.98;;
41837;SDS011;27511;52.042;5.178;2022-09-09T14:54:11;3.35;;;1.42;;
41837;SDS011;27511;52.042;5.178;2022-09-09T14:56:37;1.70;;;1.50;;
41837;SDS011;27511;52.042;5.178;2022-09-09T14:59:03;3.45;;;1.33;;
41837;SDS011;27511;52.042;5.178;2022-09-09T15:01:30;3.08;;;1.60;;
41837;SDS011;27511;52.042;5.178;2022-09-09T15:04:00;1.73;;;1.20;;
41837;SDS011;27511;52.042;5.178;2022-09-09T15:06:28;3.25;;;1.52;;
41837;SDS011;27511;52.042;5.178;2022-09-09T15:08:55;4.28;;;1.83;;
41837;SDS011;27511;52.042;5.178;2022-09-09T15:11:25;2.70;;;1.40;;
41837;SDS011;27511;52.042;5.178;2022-09-09T15:13:52;2.38;;;1.58;;
41837;SDS011;27511;52.042;5.178;2022-09-09T15:16:19;4.30;;;1.48;;
41837;SDS011;27511;52.042;5.178;2022-09-09T15:18:49;2.97;;;1.38;;
41837;SDS011;27511;52.042;5.178;2022-09-09T15:21:17;2.10;;;1.23;;
41837;SDS011;27511;52.042;5.178;2022-09-09T15:23:44;4.45;;;1.70;;
41837;SDS011;27511;52.042;5.178;2022-09-09T15:26:12;5.22;;;1.70;;
41837;SDS011;27511;52.042;5.178;2022-09-09T15:28:43;3.13;;;1.85;;
41837;SDS011;27511;52.042;5.178;2022-09-09T15:31:11;8.02;;;2.30;;
41837;SDS011;27511;52.042;5.178;2022-09-09T15:33:51;1.88;;;1.73;;
41837;SDS011;27511;52.042;5.178;2022-09-09T15:36:26;1.83;;;1.58;;
41837;SDS011;27511;52.042;5.178;2022-09-09T15:38:57;2.75;;;1.65;;
41837;SDS011;27511;52.042;5.178;2022-09-09T15:41:28;3.03;;;2.00;;
41837;SDS011;27511;52.042;5.178;2022-09-09T15:43:55;3.13;;;2.25;;
41837;SDS011;27511;52.042;5.178;2022-09-09T15:46:26;4.22;;;2.58;;
41837;SDS011;27511;52.042;5.178;2022-09-09T15:49:04;3.00;;;2.10;;
41837;SDS011;27511;52.042;5.178;2022-09-09T15:51:36;2.25;;;1.98;;
41837;SDS011;27511;52.042;5.178;2022-09-09T15:54:04;3.35;;;1.63;;
41837;SDS011;27511;52.042;5.178;2022-09-09T15:56:30;3.25;;;1.58;;
41837;SDS011;27511;52.042;5.178;2022-09-09T15:58:57;4.40;;;2.55;;
41837;SDS011;27511;52.042;5.178;2022-09-09T16:01:24;2.42;;;1.73;;
41837;SDS011;27511;52.042;5.178;2022-09-09T16:03:50;2.80;;;1.75;;
41837;SDS011;27511;52.042;5.178;2022-09-09T16:06:17;2.00;;;1.65;;
41837;SDS011;27511;52.042;5.178;2022-09-09T16:08:46;2.00;;;1.42;;
41837;SDS011;27511;52.042;5.178;2022-09-09T16:11:19;3.30;;;2.10;;
41837;SDS011;27511;52.042;5.178;2022-09-09T16:13:47;1.77;;;1.48;;
41837;SDS011;27511;52.042;5.178;2022-09-09T16:16:14;4.65;;;1.92;;
41837;SDS011;27511;52.042;5.178;2022-09-09T16:18:42;3.78;;;1.90;;
41837;SDS011;27511;52.042;5.178;2022-09-09T16:21:14;1.85;;;1.60;;
41837;SDS011;27511;52.042;5.178;2022-09-09T16:23:45;3.25;;;1.88;;
41837;SDS011;27511;52.042;5.178;2022-09-09T16:26:12;3.80;;;1.90;;
41837;SDS011;27511;52.042;5.178;2022-09-09T16:28:39;6.80;;;3.00;;
41837;SDS011;27511;52.042;5.178;2022-09-09T16:31:06;4.13;;;2.15;;
41837;SDS011;27511;52.042;5.178;2022-09-09T16:33:36;4.57;;;2.33;;
41837;SDS011;27511;52.042;5.178;2022-09-09T16:36:06;2.25;;;2.05;;
41837;SDS011;27511;52.042;5.178;2022-09-09T16:38:32;4.43;;;2.40;;
41837;SDS011;27511;52.042;5.178;2022-09-09T16:40:59;5.45;;;3.05;;
41837;SDS011;27511;52.042;5.178;2022-09-09T16:43:25;5.65;;;2.55;;
41837;SDS011;27511;52.042;5.178;2022-09-09T16:45:51;5.00;;;2.85;;
41837;SDS011;27511;52.042;5.178;2022-09-09T16:48:16;4.82;;;2.65;;
41837;SDS011;27511;52.042;5.178;2022-09-09T16:50:42;5.20;;;2.80;;
41837;SDS011;27511;52.042;5.178;2022-09-09T16:53:07;2.67;;;2.38;;
41837;SDS011;27511;52.042;5.178;2022-09-09T16:55:37;4.75;;;2.95;;